Time;durP1;ratioP1;P1;durP2;ratioP2;P2;SDS_P1;SDS_P2;PMS_P1;PMS_P2;Temp;Humidity;BMP_temperature;BMP_pressure;BME280_temperature;BME280_humidity;BME280_pressure;Samples;Min_cycle;Max_cycle;Signal;HPM_P1;HPM_P2
2022/09/21 00:01:23;;;;;;;12.45;2.30;;;21.00;99.90;;;;;;5014358;28;20159;-66
2022/09/21 00:03:59;;;;;;;14.85;2.05;;;21.30;99.90;;;;;;5014624;28;20040;-66
2022/09/21 00:06:29;;;;;;;12.70;2.20;;;21.50;99.90;;;;;;5012831;28;20052;-66
2022/09/21 00:08:56;;;;;;;13.80;3.08;;;21.50;99.90;;;;;;5014269;28;20029;-67
2022/09/21 00:11:29;;;;;;;11.07;1.98;;;21.30;99.90;;;;;;5014354;28;20026;-66
2022/09/21 00:14:00;;;;;;;10.45;2.40;;;21.20;99.90;;;;;;5014241;28;20018;-66
2022/09/21 00:16:28;;;;;;;12.63;2.05;;;20.90;99.90;;;;;;5014256;28;20026;-66
2022/09/21 00:18:55;;;;;;;11.23;2.30;;;;;;;;;;5012680;28;20088;-67
2022/09/21 00:21:23;;;;;;;11.85;2.10;;;;;;;;;;5012870;28;20022;-66
2022/09/21 00:23:50;;;;;;;13.90;2.13;;;;;;;;;;5014128;28;20032;-67
2022/09/21 00:26:19;;;;;;;11.90;1.95;;;;;;;;;;5014217;28;20056;-67
2022/09/21 00:28:48;;;;;;;8.93;1.90;;;;;;;;;;5013871;28;20399;-67
2022/09/21 00:31:17;;;;;;;13.98;2.42;;;;;;;;;;5012730;28;20030;-67
2022/09/21 00:33:44;;;;;;;9.60;2.17;;;;;;;;;;5013931;28;20057;-67
2022/09/21 00:36:13;;;;;;;9.77;2.00;;;;;;;;;;5013967;28;20482;-67
2022/09/21 00:38:40;;;;;;;10.88;2.67;;;;;;;;;;5013808;28;20041;-67
2022/09/21 00:41:09;;;;;;;15.02;2.97;;;;;;;;;;5013812;28;20076;-67
2022/09/21 00:43:37;;;;;;;12.02;1.67;;;;;;;;;;5014055;28;20557;-67
2022/09/21 00:46:06;;;;;;;11.27;1.63;;;;;;;;;;5013731;28;20033;-67
2022/09/21 00:48:34;;;;;;;7.13;1.55;;;;;;;;;;5013640;28;20505;-67
2022/09/21 00:51:03;;;;;;;9.43;1.60;;;;;;;;;;5013248;28;20109;-67
2022/09/21 00:53:31;;;;;;;7.22;1.70;;;;;;;;;;5013384;28;20105;-67
2022/09/21 00:55:58;;;;;;;6.80;1.60;;;;;;;;;;5013808;28;20101;-67
2022/09/21 00:58:29;;;;;;;11.20;2.08;;;;;;;;;;5013415;28;20026;-67
2022/09/21 01:00:58;;;;;;;10.10;1.77;;;;;;;;;;5013554;28;20474;-66
2022/09/21 01:03:26;;;;;;;13.10;2.42;;;;;;;;;;5013300;28;20088;-67
2022/09/21 01:05:53;;;;;;;12.07;2.33;;;;;;;;;;5013307;28;20038;-67
2022/09/21 01:08:21;;;;;;;9.60;2.10;;;;;;;;;;5013579;28;20034;-67
2022/09/21 01:10:58;;;;;;;8.88;2.13;;;;;;;;;;5013392;28;20041;-67
2022/09/21 01:13:34;;;;;;;8.15;2.00;;;;;;;;;;5012130;28;20025;-66
2022/09/21 01:16:02;;;;;;;10.82;1.58;;;;;;;;;;5011926;28;20445;-67
2022/09/21 01:18:47;;;;;;;10.50;2.20;;;;;;;;;;5013251;28;20029;-67
2022/09/21 01:21:23;;;;;;;9.30;2.00;;;;;;;;;;5011964;28;20026;-68
2022/09/21 01:23:53;;;;;;;10.98;2.35;;;;;;;;;;5011829;28;20040;-66
2022/09/21 01:26:20;;;;;;;10.40;2.40;;;;;;;;;;5013104;28;20367;-68
2022/09/21 01:29:03;;;;;;;13.75;2.10;;;;;;;;;;5011884;28;20121;-68
2022/09/21 01:31:38;;;;;;;9.05;1.77;;;;;;;;;;5013308;28;20030;-67
2022/09/21 01:34:14;;;;;;;9.45;1.67;;;;;;;;;;5013225;28;20088;-67
2022/09/21 01:36:43;;;;;;;11.38;1.90;;;;;;;;;;5013104;28;20101;-68
2022/09/21 01:39:13;;;;;;;11.15;2.30;;;;;;;;;;5012924;28;20083;-68
2022/09/21 01:41:41;;;;;;;11.70;2.53;;;;;;;;;;5013014;28;20042;-68
2022/09/21 01:44:18;;;;;;;12.82;2.22;;;;;;;;;;5011647;28;20023;-67
2022/09/21 01:46:47;;;;;;;9.98;2.38;;;;;;;;;;5013089;28;20479;-67
2022/09/21 01:49:23;;;;;;;8.65;2.20;;;;;;;;;;5013148;28;20022;-67
2022/09/21 01:51:53;;;;;;;10.23;1.83;;;;;;;;;;5012958;28;20030;-68
2022/09/21 01:54:24;;;;;;;8.43;1.27;;;;;;;;;;5012901;28;20099;-67
2022/09/21 01:57:09;;;;;;;15.88;2.78;;;;;;;;;;5011723;28;20036;-68
2022/09/21 01:59:55;;;;;;;9.43;1.88;;;;;;;;;;5011529;28;20026;-68
2022/09/21 02:02:42;;;;;;;13.07;1.98;;;;;;;;;;5013037;28;20030;-68
2022/09/21 02:05:11;;;;;;;8.68;2.00;;;;;;;;;;5014743;28;20398;-70
2022/09/21 02:07:38;;;;;;;7.30;1.52;;;;;;;;;;5016963;28;20037;-67
2022/09/21 02:10:07;;;;;;;13.57;2.35;;;;;;;;;;5016756;28;20029;-68
2022/09/21 02:12:35;;;;;;;10.57;2.13;;;;;;;;;;5016656;28;20342;-68
2022/09/21 02:15:02;;;;;;;12.82;1.80;;;;;;;;;;5016445;28;20022;-68
2022/09/21 02:17:30;;;;;;;10.57;2.05;;;;;;;;;;5016541;28;20045;-68
2022/09/21 02:20:17;;;;;;;10.77;2.58;;;;;;;;;;5015075;28;20040;-68
2022/09/21 02:23:02;;;;;;;8.52;2.05;;;;;;;;;;5016404;28;20097;-67
2022/09/21 02:25:29;;;;;;;11.52;2.17;;;;;;;;;;5016209;28;20389;-70
2022/09/21 02:28:00;;;;;;;13.80;2.28;;;;;;;;;;5016238;28;20071;-68
2022/09/21 02:30:27;;;;;;;12.02;2.72;;;;;;;;;;5014933;28;20084;-67
2022/09/21 02:33:16;;;;;;;11.48;2.25;;;;;;;;;;5016200;28;20026;-68
2022/09/21 02:35:53;;;;;;;10.07;2.38;;;;;;;;;;5016202;28;20021;-67
2022/09/21 02:38:20;;;;;;;11.60;2.33;;;;;;;;;;5016320;28;20113;-67
2022/09/21 02:40:52;;;;;;;9.75;2.08;;;;;;;;;;5015954;28;20093;-68
2022/09/21 02:43:24;;;;;;;11.52;1.90;;;;;;;;;;5016113;28;20390;-68
2022/09/21 02:45:55;;;;;;;11.90;2.10;;;;;;;;;;5016100;28;20018;-68
2022/09/21 02:48:29;;;;;;;11.35;1.88;;;;;;;;;;5016133;28;20025;-68
2022/09/21 02:50:58;;;;;;;11.30;1.67;;;;;;;;;;5016401;28;20155;-67
2022/09/21 02:53:29;;;;;;;10.98;2.10;;;;;;;;;;5015880;28;20048;-67
2022/09/21 02:55:57;;;;;;;13.00;2.47;;;;;;;;;;5015819;28;20481;-67
2022/09/21 02:58:26;;;;;;;10.38;1.67;;;;;;;;;;5014320;28;20030;-67
2022/09/21 03:00:55;;;;;;;8.73;2.00;;;;;;;;;;5015775;28;20018;-67
2022/09/21 03:03:23;;;;;;;8.80;1.85;;;;;;;;;;5015796;28;20433;-67
2022/09/21 03:05:52;;;;;;;8.10;1.98;;;;;;;;;;5015219;28;20520;-67
2022/09/21 03:08:19;;;;;;;13.57;2.08;;;;;;;;;;5015339;28;20018;-69
2022/09/21 03:10:49;;;;;;;9.88;2.10;;;;;;;;;;5015487;28;20030;-68
2022/09/21 03:13:17;;;;;;;11.77;2.67;;;;;;;;;;5012702;28;20117;-68
2022/09/21 03:15:45;;;;;;;8.68;1.83;;;;;;;;;;5013893;28;20022;-69
2022/09/21 03:18:12;;;;;;;12.23;2.35;;;;;;;;;;5013723;28;20025;-68
2022/09/21 03:20:40;;;;;;;14.73;2.75;;;;;;;;;;5013905;28;20018;-68
2022/09/21 03:23:07;;;;;;;13.68;2.97;;;;;;;;;;5012521;28;20037;-68
2022/09/21 03:25:35;;;;;;;13.88;2.33;;;;;;;;;;5013911;28;20018;-68
2022/09/21 03:28:02;;;;;;;11.82;2.03;;;;;;;;;;5014284;28;20022;-67
2022/09/21 03:30:30;;;;;;;12.80;2.75;;;;;;;;;;5015127;28;20014;-67
2022/09/21 03:32:57;;;;;;;11.80;2.40;;;;;;;;;;5014976;28;20014;-68
2022/09/21 03:35:28;;;;;;;10.82;2.00;;;;;;;;;;5014998;28;20474;-68
2022/09/21 03:37:55;;;;;;;12.77;2.42;;;;;;;;;;5014945;28;20525;-67
2022/09/21 03:40:22;;;;;;;12.70;2.78;;;;;;;;;;5015233;28;20022;-67
2022/09/21 03:42:49;;;;;;;12.70;2.33;;;;;;;;;;5014838;28;20022;-67
2022/09/21 03:45:16;;;;;;;16.83;2.80;;;;;;;;;;5014853;28;20033;-67
2022/09/21 03:47:43;;;;;;;15.13;2.53;;;;;;;;;;5014846;28;20417;-67
2022/09/21 03:50:11;;;;;;;13.07;2.67;;;;;;;;;;5013515;28;20029;-67
2022/09/21 03:52:39;;;;;;;12.50;2.42;;;;;;;;;;5014641;28;20122;-67
2022/09/21 03:55:07;;;;;;;17.23;2.65;;;;;;;;;;5014723;28;20037;-67
2022/09/21 03:57:34;;;;;;;13.10;2.42;;;;;;;;;;5014589;28;20105;-68
2022/09/21 04:00:02;;;;;;;13.13;2.72;;;;;;;;;;5014395;28;20076;-67
2022/09/21 04:02:30;;;;;;;12.43;3.05;;;;;;;;;;5014624;28;20049;-67
2022/09/21 04:04:58;;;;;;;17.50;2.72;;;;;;;;;;5014745;28;20430;-67
2022/09/21 04:07:25;;;;;;;14.63;2.67;;;;;;;;;;5014296;28;20046;-67
2022/09/21 04:09:52;;;;;;;19.00;2.70;;;;;;;;;;5014271;28;20474;-67
2022/09/21 04:12:22;;;;;;;13.55;3.10;;;;;;;;;;5014324;28;20093;-67
2022/09/21 04:14:49;;;;;;;16.15;2.97;;;;;;;;;;5014220;28;20022;-68
2022/09/21 04:17:17;;;;;;;17.75;3.00;;;;;;;;;;5014634;28;20101;-69
2022/09/21 04:19:44;;;;;;;17.48;3.25;;;;;;;;;;5014343;28;20484;-68
2022/09/21 04:22:15;;;;;;;13.85;2.72;;;19.50;99.90;;;;;;5014078;28;20069;-68
2022/09/21 04:24:42;;;;;;;18.08;2.70;;;;;;;;;;5013885;28;20018;-70
2022/09/21 04:27:11;;;;;;;18.48;3.75;;;;;;;;;;5013141;28;20021;-71
2022/09/21 04:29:38;;;;;;;20.15;3.20;;;;;;;;;;5012413;28;20022;-70
2022/09/21 04:32:06;;;;;;;16.58;3.50;;;;;;;;;;5011233;28;20018;-70
2022/09/21 04:34:33;;;;;;;16.58;3.08;;;;;;;;;;5012350;28;20025;-70
2022/09/21 04:37:00;;;;;;;16.67;3.00;;;;;;;;;;5011110;28;20117;-70
2022/09/21 04:39:27;;;;;;;20.88;2.70;;;;;;;;;;5012248;28;20101;-70
2022/09/21 04:41:55;;;;;;;15.45;3.33;;;;;;;;;;5012404;28;20104;-70
2022/09/21 04:44:23;;;;;;;17.85;3.50;;;;;;;;;;5013571;28;20018;-70
2022/09/21 04:46:50;;;;;;;15.65;3.05;;;;;;;;;;5012638;28;20022;-70
2022/09/21 04:49:17;;;;;;;16.02;2.83;;;;;;;;;;5012399;28;20105;-70
2022/09/21 04:51:44;;;;;;;16.58;3.05;;;;;;;;;;5012524;28;20034;-70
2022/09/21 04:54:12;;;;;;;14.18;2.97;;;;;;;;;;5013574;28;20026;-70
2022/09/21 04:56:39;;;;;;;19.63;3.75;;;;;;;;;;5013614;28;20049;-71
2022/09/21 04:59:07;;;;;;;14.93;2.95;;;;;;;;;;5012131;28;20102;-71
2022/09/21 05:01:34;;;;;;;17.67;4.13;;;;;;;;;;5014035;28;20367;-70
2022/09/21 05:04:01;;;;;;;16.50;3.30;;;;;;;;;;5013457;28;20018;-70
2022/09/21 05:06:29;;;;;;;16.52;3.83;;;;;;;;;;5013244;28;20121;-68
2022/09/21 05:11:42;;;;;;;23.88;3.47;;;;;;;;;;5013212;28;20513;-69
2022/09/21 05:14:10;;;;;;;16.80;3.20;;;;;;;;;;5013574;28;20026;-70
2022/09/21 05:16:37;;;;;;;16.17;3.53;;;;;;;;;;5013338;28;20026;-69
2022/09/21 05:19:05;;;;;;;20.95;3.75;;;;;;;;;;5013251;28;20085;-70
2022/09/21 05:21:32;;;;;;;15.30;3.63;;;;;;;;;;5013215;28;20026;-70
2022/09/21 05:23:59;;;;;;;11.40;2.75;;;;;;;;;;5013363;28;20021;-69
2022/09/21 05:26:27;;;;;;;15.15;3.45;;;;;;;;;;5012996;28;20453;-69
2022/09/21 05:28:54;;;;;;;24.25;4.05;;;;;;;;;;5013423;28;20028;-69
2022/09/21 05:31:30;;;;;;;21.83;3.80;;;;;;;;;;5012992;28;20030;-69
2022/09/21 05:34:17;;;;;;;16.38;2.67;;;;;;;;;;5013277;28;20434;-68
2022/09/21 05:36:59;;;;;;;20.35;3.20;;;;;;;;;;4992102;28;20034;-69
2022/09/21 05:39:26;;;;;;;15.75;3.35;;;;;;;;;;5016773;28;20029;-69
2022/09/21 05:41:54;;;;;;;15.40;3.67;;;;;;;;;;5014677;28;20121;-69
2022/09/21 05:44:21;;;;;;;18.52;3.63;;;;;;;;;;5013848;28;20053;-69
2022/09/21 05:46:51;;;;;;;20.80;3.22;;;;;;;;;;5015478;28;20028;-70
2022/09/21 05:49:36;;;;;;;18.45;3.25;;;;;;;;;;5016547;28;20026;-69
2022/09/21 05:52:30;;;;;;;20.20;3.72;;;;;;;;;;5016067;28;20053;-69
2022/09/21 05:55:04;;;;;;;19.13;3.58;;;;;;;;;;5015425;28;20030;-69
2022/09/21 05:57:46;;;;;;;20.27;3.83;;;;;;;;;;5017000;28;20033;-69
2022/09/21 06:00:18;;;;;;;21.52;3.90;;;;;;;;;;5016734;28;20046;-69
2022/09/21 06:02:51;;;;;;;13.88;2.90;;;;;;;;;;5016870;28;20359;-69
2022/09/21 06:05:19;;;;;;;20.92;4.18;;;;;;;;;;5015261;28;20382;-69
2022/09/21 06:07:46;;;;;;;17.63;3.60;;;;;;;;;;5015357;28;20040;-69
2022/09/21 06:10:14;;;;;;;21.63;3.60;;;;;;;;;;5016657;28;20390;-70
2022/09/21 06:12:41;;;;;;;17.88;3.40;;;;;;;;;;5016668;28;20022;-69
2022/09/21 06:15:11;;;;;;;17.55;3.65;;;;;;;;;;5016849;28;20028;-69
2022/09/21 06:17:38;;;;;;;25.88;4.30;;;;;;;;;;5016318;28;20021;-70
2022/09/21 06:20:06;;;;;;;22.58;3.58;;;;;;;;;;5016383;28;20030;-68
2022/09/21 06:22:48;;;;;;;17.38;3.25;;;;;;;;;;5016281;28;20375;-68
2022/09/21 06:25:16;;;;;;;14.63;3.55;;;;;;;;;;5015113;28;20072;-69
2022/09/21 06:27:43;;;;;;;20.02;4.05;;;;;;;;;;5015003;28;20104;-69
2022/09/21 06:30:10;;;;;;;22.33;4.25;;;;;;;;;;5016252;28;20026;-69
2022/09/21 06:32:37;;;;;;;20.65;3.97;;;;;;;;;;5016079;28;20033;-68
2022/09/21 06:35:04;;;;;;;16.20;3.20;;;;;;;;;;5016137;28;20029;-68
2022/09/21 06:37:32;;;;;;;20.55;3.55;;;;;;;;;;5016037;28;20105;-68
2022/09/21 06:39:59;;;;;;;19.60;3.95;;;;;;;;;;5015941;28;20018;-69
2022/09/21 06:42:27;;;;;;;17.17;3.65;;;;;;;;;;5015849;28;20050;-68
2022/09/21 06:44:54;;;;;;;19.90;4.55;;;;;;;;;;5016012;28;20022;-68
2022/09/21 06:47:21;;;;;;;13.90;3.30;;;;;;;;;;5016026;28;20018;-68
2022/09/21 06:49:48;;;;;;;18.35;4.05;;;;;;;;;;5013554;28;20101;-68
2022/09/21 06:52:16;;;;;;;17.67;3.50;;;;;;;;;;5015882;28;20524;-66
2022/09/21 06:54:43;;;;;;;19.15;3.40;;;;;;;;;;5015399;28;20018;-67
2022/09/21 06:57:10;;;;;;;18.20;3.63;;;;;;;;;;5015511;28;20025;-67
2022/09/21 06:59:37;;;;;;;21.45;3.55;;;;;;;;;;5015429;28;20378;-68
2022/09/21 07:02:04;;;;;;;18.08;3.80;;;;;;;;;;5014155;28;20018;-67
2022/09/21 07:04:32;;;;;;;16.33;3.20;;;;;;;;;;5015715;28;20101;-68
2022/09/21 07:06:59;;;;;;;15.25;3.17;;;;;;;;;;5015235;28;20070;-67
2022/09/21 07:09:26;;;;;;;16.52;3.42;;;;;;;;;;5015505;28;20513;-66
2022/09/21 07:11:54;;;;;;;18.80;3.35;;;;;;;;;;5015566;28;20025;-67
2022/09/21 07:14:22;;;;;;;15.52;3.20;;;;;;;;;;5014827;28;20022;-68
2022/09/21 07:16:49;;;;;;;17.58;3.10;;;;;;;;;;5015059;28;20022;-66
2022/09/21 07:19:16;;;;;;;20.48;3.72;;;;;;;;;;5014754;28;20069;-67
2022/09/21 07:21:43;;;;;;;18.35;2.92;;;;;;;;;;5014823;28;20022;-67
2022/09/21 07:24:10;;;;;;;20.48;3.33;;;;;;;;;;5013019;28;20463;-66
2022/09/21 07:26:38;;;;;;;19.15;4.60;;;;;;;;;;5012879;28;20434;-67
2022/09/21 07:29:05;;;;;;;14.27;2.92;;;;;;;;;;5012687;28;20470;-67
2022/09/21 07:31:32;;;;;;;16.85;4.05;;;;;;;;;;5013247;28;20478;-67
2022/09/21 07:33:59;;;;;;;16.85;3.15;;;;;;;;;;5014616;28;20493;-69
2022/09/21 07:36:26;;;;;;;18.63;3.30;;;;;;;;;;5013309;28;20029;-68
2022/09/21 07:38:54;;;;;;;24.50;4.22;;;;;;;;;;5014511;28;20025;-68
2022/09/21 07:41:21;;;;;;;17.35;4.03;;;;;;;;;;5014772;28;20018;-68
2022/09/21 07:43:49;;;;;;;18.23;3.63;;;;;;;;;;5014658;28;20037;-68
2022/09/21 07:46:16;;;;;;;15.55;3.08;;;;;;;;;;5014880;28;20022;-68
2022/09/21 07:48:43;;;;;;;20.48;3.50;;;;;;;;;;5014710;28;20470;-68
2022/09/21 07:51:12;;;;;;;20.45;4.43;;;;;;;;;;5014914;28;20026;-68
2022/09/21 07:53:40;;;;;;;23.17;4.03;;;;;;;;;;5014479;28;20030;-68
2022/09/21 07:56:09;;;;;;;18.15;3.20;;;;;;;;;;5014562;28;20076;-68
2022/09/21 08:01:22;;;;;;;19.20;3.97;;;;;;;;;;5014540;28;20084;-68
2022/09/21 08:03:50;;;;;;;15.20;3.15;;;;;;;;;;5014320;28;20437;-68
2022/09/21 08:06:18;;;;;;;20.80;4.13;;;;;;;;;;5014104;28;20052;-68
2022/09/21 08:08:46;;;;;;;18.90;3.45;;;;;;;;;;5013027;28;20034;-68
2022/09/21 08:11:14;;;;;;;19.88;3.58;;;;;;;;;;5014327;28;20028;-68
2022/09/21 08:13:41;;;;;;;19.33;4.75;;;;;;;;;;5014315;28;20034;-68
2022/09/21 08:16:09;;;;;;;18.25;3.55;;;;;;;;;;5014279;28;20056;-68
2022/09/21 08:18:40;;;;;;;19.80;4.07;;;;;;;;;;5014075;28;20025;-67
2022/09/21 08:21:08;;;;;;;20.67;4.55;;;;;;;;;;5012840;28;20022;-67
2022/09/21 08:23:39;;;;;;;20.40;4.22;;;;;;;;;;5014187;28;20076;-67
2022/09/21 08:26:07;;;;;;;14.98;3.20;;;;;;;;;;5014220;28;20041;-67
2022/09/21 08:28:35;;;;;;;17.52;3.95;;;;;;;;;;5014128;28;20045;-67
2022/09/21 08:31:03;;;;;;;22.95;3.95;;;;;;;;;;5012452;28;20034;-67
2022/09/21 08:33:31;;;;;;;22.23;3.92;;;;;;;;;;5013991;28;20022;-67
2022/09/21 08:35:59;;;;;;;20.05;4.13;;;;;;;;;;5014163;28;20030;-67
2022/09/21 08:38:27;;;;;;;21.05;3.97;;;;;;;;;;5013941;28;20030;-67
2022/09/21 08:40:55;;;;;;;21.88;3.92;;;;;;;;;;5013865;28;20022;-67
2022/09/21 08:43:25;;;;;;;19.52;4.43;;;;;;;;;;5012436;28;20022;-67
2022/09/21 08:45:52;;;;;;;18.35;3.90;;;;;;;;;;5013820;28;20072;-66
2022/09/21 08:48:24;;;;;;;25.02;4.68;;;;;;;;;;5013887;28;20041;-65
2022/09/21 08:50:53;;;;;;;20.02;4.22;;;;;;;;;;5013846;28;20033;-67
2022/09/21 08:53:22;;;;;;;19.90;4.72;;;;;;;;;;5013643;28;20452;-67
2022/09/21 08:55:49;;;;;;;21.17;4.72;;;;;;;;;;5013669;28;20544;-67
2022/09/21 08:58:26;;;;;;;15.48;4.05;;;;;;;;;;5013324;28;20022;-67
2022/09/21 09:01:06;;;;;;;21.65;4.15;;;;;;;;;;5010495;28;20022;-66
2022/09/21 09:03:36;;;;;;;21.17;4.25;;;;;;;;;;5013442;28;20018;-65
2022/09/21 09:06:20;;;;;;;20.05;4.25;;;;;;;;;;5013531;28;20049;-65
2022/09/21 09:09:09;;;;;;;21.67;4.60;;;;;;;;;;5013511;28;20080;-64
2022/09/21 09:11:42;;;;;;;18.35;4.22;;;;;;;;;;5013375;28;20025;-64
2022/09/21 09:14:21;;;;;;;16.58;3.50;;;;;;;;;;5013494;28;20030;-64
2022/09/21 09:17:01;;;;;;;18.30;4.03;;;;;;;;;;5013349;28;20080;-65
2022/09/21 09:19:41;;;;;;;19.38;3.80;;;;;;;;;;5013445;28;20049;-65
2022/09/21 09:22:12;;;;;;;19.40;4.40;;;;;;;;;;5013589;28;20018;-63
2022/09/21 09:24:43;;;;;;;21.77;5.15;;;;;;;;;;5013830;28;20018;-66
2022/09/21 09:27:18;;;;;;;16.42;3.70;;;;;;;;;;5013366;28;20041;-65
2022/09/21 09:30:02;;;;;;;21.05;3.85;;;;;;;;;;5013185;28;20029;-65
2022/09/21 09:32:47;;;;;;;23.55;4.75;;;;;;;;;;5013210;28;20025;-65
2022/09/21 09:35:25;;;;;;;24.08;4.85;;;;;;;;;;5013172;28;20509;-65
2022/09/21 09:37:55;;;;;;;18.65;4.25;;;;;;;;;;5013309;28;20359;-65
2022/09/21 09:40:42;;;;;;;19.42;4.82;;;;;;;;;;5012736;28;20113;-66
2022/09/21 09:43:19;;;;;;;23.13;4.95;;;;;;;;;;5001258;28;20042;-64
2022/09/21 09:45:49;;;;;;;20.67;4.53;;;;;;;;;;5012815;28;20030;-65
2022/09/21 09:48:29;;;;;;;21.10;5.15;;;;;;;;;;5013153;28;20022;-64
2022/09/21 09:50:56;;;;;;;19.45;4.38;;;;;;;;;;5011891;28;20022;-63
2022/09/21 09:53:25;;;;;;;23.33;4.93;;;;;;;;;;5013210;28;20053;-66
2022/09/21 09:55:53;;;;;;;21.27;4.85;;;;;;;;;;5012670;28;20367;-63
2022/09/21 09:58:20;;;;;;;22.83;5.00;;;;;;;;;;5012812;28;20033;-64
2022/09/21 10:00:51;;;;;;;22.83;4.00;;;;;;;;;;5012368;28;20068;-64
2022/09/21 10:03:20;;;;;;;23.00;4.60;;;;;;;;;;5012316;28;20014;-64
2022/09/21 10:05:48;;;;;;;26.20;4.40;;;;;;;;;;5012313;28;20073;-64
2022/09/21 10:08:33;;;;;;;18.75;4.30;;;;;;;;;;5012822;28;20056;-63
2022/09/21 10:11:00;;;;;;;19.42;4.22;;;;;;;;;;5013092;28;20053;-62
2022/09/21 10:13:33;;;;;;;16.42;3.45;;;;;;;;;;5011594;28;20375;-65
2022/09/21 10:16:01;;;;;;;24.35;4.32;;;;;;;;;;5012916;28;20509;-64
2022/09/21 10:18:31;;;;;;;20.40;5.15;;;;;;;;;;5012855;28;20099;-65
2022/09/21 10:21:05;;;;;;;16.38;4.20;;;;;;;;;;5012857;28;20089;-65
2022/09/21 10:23:32;;;;;;;14.77;3.63;;;;;;;;;;5013295;28;20022;-65
2022/09/21 10:26:10;;;;;;;22.02;4.55;;;;;;;;;;5016464;28;20085;-65
2022/09/21 10:28:37;;;;;;;22.02;4.00;;;;;;;;;;5016357;28;20105;-65
2022/09/21 10:31:24;;;;;;;19.02;4.20;;;;;;;;;;5016307;28;20076;-64
2022/09/21 10:34:06;;;;;;;16.13;3.60;;;;;;;;;;5016456;28;20462;-64
2022/09/21 10:36:37;;;;;;;20.33;4.95;;;;;;;;;;5016440;28;20083;-64
2022/09/21 10:39:31;;;;;;;20.33;3.33;;;;;;;;;;5014800;28;20026;-64
2022/09/21 10:41:58;;;;;;;15.68;3.60;;;;;;;;;;5013009;28;20545;-65
2022/09/21 10:44:33;;;;;;;18.80;3.70;;;;;;;;;;5016075;28;20545;-64
2022/09/21 10:47:04;;;;;;;13.63;3.90;;;;;;;;;;5015906;28;20022;-64
2022/09/21 10:49:30;;;;;;;;;;;;;;;;;;5016480;28;20106;-64
2022/09/21 10:51:59;;;;;;;13.85;3.38;;;;;;;;;;5016286;28;19965;-64
2022/09/21 10:54:31;;;;;;;22.77;3.85;;;;;;;;;;5015893;28;20029;-64
2022/09/21 10:57:01;;;;;;;20.98;4.43;;;;;;;;;;5015841;28;20117;-64
2022/09/21 10:59:29;;;;;;;19.90;3.80;;;;;;;;;;5016289;28;20034;-64
2022/09/21 11:01:58;;;;;;;16.25;3.50;;;;;;;;;;5014514;28;20026;-65
2022/09/21 11:04:41;;;;;;;13.80;3.45;;;;;;;;;;5015760;28;20014;-64
2022/09/21 11:07:21;;;;;;;18.05;3.35;;;;;;;;;;5015551;28;20033;-66
2022/09/21 11:09:54;;;;;;;17.77;4.28;;;;;;;;;;5015713;28;20148;-65
2022/09/21 11:12:28;;;;;;;18.50;3.70;;;;;;;;;;5015588;28;20100;-65
2022/09/21 11:15:13;;;;;;;19.02;3.40;;;;;;;;;;5015577;28;20030;-65
2022/09/21 11:18:10;;;;;;;20.88;3.40;;;;;;;;;;5014861;28;20029;-65
2022/09/21 11:20:48;;;;;;;17.08;3.47;;;;;;;;;;5009670;28;20401;-64
2022/09/21 11:23:34;;;;;;;16.80;3.75;;;;;;;;;;5014243;28;20018;-64
2022/09/21 11:26:01;;;;;;;14.95;3.55;;;;;;;;;;5015276;28;20100;-64
2022/09/21 11:28:46;;;;;;;19.88;3.97;;;;;;;;;;5015576;28;20026;-64
2022/09/21 11:31:13;;;;;;;18.98;3.65;;;;;;;;;;5015534;28;20022;-65
2022/09/21 11:34:04;;;;;;;14.00;3.25;;;;;;;;;;5015113;28;20034;-65
2022/09/21 11:36:33;;;;;;;14.07;3.53;;;;;;;;;;5014844;28;20068;-65
2022/09/21 11:39:12;;;;;;;19.10;3.65;;;;;;;;;;5015129;28;20394;-65
2022/09/21 11:41:46;;;;;;;16.23;3.28;;;;;;;;;;5015005;28;20382;-66
2022/09/21 11:44:22;;;;;;;25.25;3.65;;;;;;;;;;5014952;28;20021;-65
2022/09/21 11:47:08;;;;;;;12.77;3.70;;;;;;;;;;5014899;28;20100;-64
2022/09/21 11:49:38;;;;;;;13.65;3.40;;;;;;;;;;5014780;28;20022;-63
2022/09/21 11:52:14;;;;;;;15.30;3.53;;;;;;;;;;5014641;28;20022;-64
2022/09/21 11:54:59;;;;;;;15.30;3.28;;;;;;;;;;5013608;28;20066;-65
2022/09/21 11:57:29;;;;;;;16.67;4.47;;;;;;;;;;5012703;28;20064;-64
2022/09/21 12:00:16;;;;;;;16.90;3.95;;;;;;;;;;5012612;28;20025;-64
2022/09/21 12:02:49;;;;;;;18.42;3.65;;;;;;;;;;5012503;28;20021;-64
2022/09/21 12:05:28;;;;;;;12.30;3.78;;;;;;;;;;5012761;28;20022;-64
2022/09/21 12:08:13;;;;;;;14.30;3.33;;;;;;;;;;5012668;28;20350;-64
2022/09/21 12:10:56;;;;;;;19.40;3.75;;;;;;;;;;5014149;28;20030;-64
2022/09/21 12:13:36;;;;;;;20.45;3.70;;;;;;;;;;5013074;28;20139;-64
2022/09/21 12:16:10;;;;;;;18.87;3.50;;;;;;;;;;5014609;28;20367;-64
2022/09/21 12:18:40;;;;;;;17.17;3.70;;;;;;;;;;5014176;28;20076;-65
2022/09/21 12:21:10;;;;;;;14.00;3.50;;;;;;;;;;5014283;28;20021;-65
2022/09/21 12:23:41;;;;;;;14.90;3.10;;;;;;;;;;5014284;28;20033;-65
2022/09/21 12:26:09;;;;;;;11.85;3.50;;;;;;;;;;5012917;28;20056;-65
2022/09/21 12:28:48;;;;;;;15.10;3.92;;;;;;;;;;5014159;28;20025;-65
2022/09/21 12:31:35;;;;;;;14.07;4.15;;;;;;;;;;5014062;28;20071;-65
2022/09/21 12:34:10;;;;;;;14.13;4.22;;;;;;;;;;5013910;28;20026;-65
2022/09/21 12:36:40;;;;;;;12.70;3.90;;;;;;;;;;5012861;28;20018;-65
2022/09/21 12:39:19;;;;;;;11.32;2.97;;;;;;;;;;5012619;28;20038;-65
2022/09/21 12:41:51;;;;;;;10.80;3.20;;;;;;;;;;5013935;28;20026;-65
2022/09/21 12:44:25;;;;;;;16.48;3.50;;;;;;;;;;5014005;28;20493;-64
2022/09/21 12:47:08;;;;;;;14.40;3.30;;;;;;;;;;5013166;28;20014;-64
2022/09/21 12:49:39;;;;;;;16.75;3.53;;;;;;;;;;5014004;28;20032;-64
2022/09/21 12:52:07;;;;;;;23.40;4.28;;;;;;;;;;5013740;28;20033;-64
2022/09/21 12:54:45;;;;;;;15.10;3.63;;;;;;;;;;5013689;28;20022;-64
2022/09/21 12:57:23;;;;;;;14.27;3.88;;;;;;;;;;5013824;28;20025;-64
2022/09/21 12:59:59;;;;;;;11.07;3.38;;;;;;;;;;5013512;28;20137;-64
2022/09/21 13:02:26;;;;;;;11.25;4.07;;;;;;;;;;5013468;28;20355;-64
2022/09/21 13:05:10;;;;;;;10.30;3.13;;;;;;;;;;5013673;28;20022;-64
2022/09/21 13:07:37;;;;;;;12.20;3.13;;;;;;;;;;5013689;28;20050;-63
2022/09/21 13:10:14;;;;;;;13.50;3.33;;;;;;;;;;5013433;28;20391;-64
2022/09/21 13:12:43;;;;;;;12.18;3.10;;;;;;;;;;5012359;28;20026;-63
2022/09/21 13:15:24;;;;;;;10.48;3.45;;;;;;;;;;5013386;28;20484;-63
2022/09/21 13:18:03;;;;;;;12.55;3.42;;;;;;;;;;5013499;28;20021;-63
2022/09/21 13:20:50;;;;;;;13.25;3.17;;;;;;;;;;5011960;28;20033;-63
2022/09/21 13:23:25;;;;;;;13.77;4.00;;;;;;;;;;5013827;28;20025;-64
2022/09/21 13:26:00;;;;;;;16.30;3.85;;;;;;;;;;5013506;28;20501;-64
2022/09/21 13:28:59;;;;;;;15.27;3.88;;;;;;;;;;5013335;28;20021;-64
2022/09/21 13:31:45;;;;;;;6.65;2.78;;;;;;;;;;5001508;28;20030;-64
2022/09/21 13:34:24;;;;;;;11.63;3.47;;;;;;;;;;5013279;28;20022;-64
2022/09/21 13:37:12;;;;;;;12.93;3.65;;;;;;;;;;5012068;28;20026;-64
2022/09/21 13:39:45;;;;;;;13.10;3.63;;;;;;;;;;5013307;28;20032;-64
2022/09/21 13:42:31;;;;;;;13.27;3.60;;;;;;;;;;5013258;28;20053;-64
2022/09/21 13:44:59;;;;;;;10.15;3.42;;;;;;;;;;5013242;28;20022;-65
2022/09/21 13:47:29;;;;;;;14.50;4.25;;;;;;;;;;5013196;28;20018;-65
2022/09/21 13:49:57;;;;;;;13.43;3.45;;;;;;;;;;5013050;28;20101;-64
2022/09/21 13:52:30;;;;;;;14.38;4.38;;;;;;;;;;5013119;28;20046;-64
2022/09/21 13:54:59;;;;;;;13.55;4.05;;;;;;;;;;5013141;28;20060;-64
2022/09/21 13:57:31;;;;;;;12.20;3.70;;;;;;;;;;5013126;28;20032;-64
2022/09/21 14:00:13;;;;;;;15.93;4.60;;;;;;;;;;5016914;28;20049;-64
2022/09/21 14:02:41;;;;;;;14.57;3.78;;;;;;;;;;5015635;28;20076;-64
2022/09/21 14:05:26;;;;;;;17.42;4.32;;;;;;;;;;5016896;28;20026;-65
2022/09/21 14:08:01;;;;;;;15.52;3.70;;;;;;;;;;5017061;28;20030;-64
2022/09/21 14:10:30;;;;;;;17.02;3.92;;;;;;;;;;5016933;28;20021;-64
2022/09/21 14:12:59;;;;;;;12.60;5.22;;;;;;;;;;5017004;28;20040;-64
2022/09/21 14:15:26;;;;;;;23.88;5.07;;;;;;;;;;5015466;28;20022;-65
2022/09/21 14:18:15;;;;;;;19.65;4.95;;;;;;;;;;5016511;28;20026;-65
2022/09/21 14:21:00;;;;;;;17.40;4.20;;;;;;;;;;5016687;28;20030;-65
2022/09/21 14:23:28;;;;;;;23.10;4.47;;;;;;;;;;5016609;28;20065;-65
2022/09/21 14:25:57;;;;;;;20.65;4.10;;;;;;;;;;5016349;28;20022;-64
2022/09/21 14:28:35;;;;;;;16.63;4.35;;;;;;;;;;5016358;28;20030;-65
2022/09/21 14:31:05;;;;;;;17.10;4.68;;;;;;;;;;5016770;28;20042;-64
2022/09/21 14:33:43;;;;;;;13.37;3.70;;;;;;;;;;5016390;28;20026;-64
2022/09/21 14:36:13;;;;;;;19.25;5.10;;;;;;;;;;5016411;28;20309;-65
2022/09/21 14:38:50;;;;;;;18.38;4.38;;;;;;;;;;5016139;28;20040;-65
2022/09/21 14:41:19;;;;;;;20.00;4.65;;;;;;;;;;5016216;28;20018;-65
2022/09/21 14:43:51;;;;;;;19.65;4.43;;;;;;;;;;5016164;28;20371;-65
2022/09/21 14:46:18;;;;;;;22.70;5.70;;;;;;;;;;5016375;28;20025;-65
2022/09/21 14:48:55;;;;;;;21.77;4.07;;;;;;;;;;5016181;28;20498;-65
2022/09/21 14:51:38;;;;;;;18.70;4.82;;;;;;;;;;5016107;28;20022;-65
2022/09/21 14:54:25;;;;;;;18.67;5.00;;;;;;;;;;5016166;28;20022;-65
2022/09/21 14:56:52;;;;;;;18.75;4.47;;;;;;;;;;5015919;28;20065;-64
2022/09/21 14:59:26;;;;;;;20.67;4.80;;;;;;;;;;5016066;28;20018;-65
2022/09/21 15:02:13;;;;;;;21.88;4.15;;;;;;;;;;5015791;28;20413;-65